sensor_id;sensor_type;location;lat;lon;timestamp;pressure;altitude;pressure_sealevel;temperature;humidity
46408;BME280;32110;45.724;21.276;2022-07-30T00:01:03;100172.44;;;21.39;nan
46408;BME280;32110;45.724;21.276;2022-07-30T00:05:54;100202.50;;;21.36;nan
46408;BME280;32110;45.724;21.276;2022-07-30T00:08:21;100185.44;;;21.32;nan
46408;BME280;32110;45.724;21.276;2022-07-30T00:10:47;100182.25;;;21.30;nan
46408;BME280;32110;45.724;21.276;2022-07-30T00:13:12;100195.66;;;21.30;nan
46408;BME280;32110;45.724;21.276;2022-07-30T00:15:38;100200.00;;;21.26;nan
46408;BME280;32110;45.724;21.276;2022-07-30T00:18:03;100181.59;;;21.24;nan
46408;BME280;32110;45.724;21.276;2022-07-30T00:20:29;100256.38;;;21.21;nan
46408;BME280;32110;45.724;21.276;2022-07-30T00:25:19;100175.84;;;21.17;nan
46408;BME280;32110;45.724;21.276;2022-07-30T00:27:45;100175.53;;;21.19;nan
46408;BME280;32110;45.724;21.276;2022-07-30T00:30:11;100163.53;;;21.16;nan
46408;BME280;32110;45.724;21.276;2022-07-30T00:32:37;100178.81;;;21.16;nan
46408;BME280;32110;45.724;21.276;2022-07-30T00:35:03;100187.47;;;21.13;nan
46408;BME280;32110;45.724;21.276;2022-07-30T00:37:28;100220.50;;;21.08;nan
46408;BME280;32110;45.724;21.276;2022-07-30T00:39:54;100163.47;;;21.08;nan
46408;BME280;32110;45.724;21.276;2022-07-30T00:42:19;100126.78;;;21.08;nan
46408;BME280;32110;45.724;21.276;2022-07-30T00:44:52;100209.56;;;21.04;nan
46408;BME280;32110;45.724;21.276;2022-07-30T00:47:18;100147.03;;;21.00;nan
46408;BME280;32110;45.724;21.276;2022-07-30T00:49:44;100144.03;;;21.02;nan
46408;BME280;32110;45.724;21.276;2022-07-30T00:52:10;100146.25;;;21.00;nan
46408;BME280;32110;45.724;21.276;2022-07-30T00:54:35;100108.28;;;20.98;nan
46408;BME280;32110;45.724;21.276;2022-07-30T00:59:26;100061.91;;;20.89;nan
46408;BME280;32110;45.724;21.276;2022-07-30T01:01:53;100146.25;;;21.00;nan
46408;BME280;32110;45.724;21.276;2022-07-30T01:06:44;100117.69;;;20.95;nan
46408;BME280;32110;45.724;21.276;2022-07-30T01:09:10;100103.31;;;20.91;nan
46408;BME280;32110;45.724;21.276;2022-07-30T01:11:37;100122.84;;;20.92;nan
46408;BME280;32110;45.724;21.276;2022-07-30T01:14:04;100103.63;;;20.90;nan
46408;BME280;32110;45.724;21.276;2022-07-30T01:16:31;100126.03;;;20.94;nan
46408;BME280;32110;45.724;21.276;2022-07-30T01:18:58;100108.19;;;20.89;nan
46408;BME280;32110;45.724;21.276;2022-07-30T01:24:33;100123.56;;;20.97;nan
46408;BME280;32110;45.724;21.276;2022-07-30T01:27:00;100092.63;;;20.91;nan
46408;BME280;32110;45.724;21.276;2022-07-30T01:31:54;100111.84;;;20.93;nan
46408;BME280;32110;45.724;21.276;2022-07-30T01:34:26;100106.00;;;20.91;nan
46408;BME280;32110;45.724;21.276;2022-07-30T01:36:52;100123.06;;;20.95;nan
46408;BME280;32110;45.724;21.276;2022-07-30T01:39:18;100130.75;;;20.97;nan
46408;BME280;32110;45.724;21.276;2022-07-30T01:41:45;100116.41;;;20.93;nan
46408;BME280;32110;45.724;21.276;2022-07-30T01:44:13;100117.22;;;20.93;nan
46408;BME280;32110;45.724;21.276;2022-07-30T01:46:40;100113.44;;;20.94;nan
46408;BME280;32110;45.724;21.276;2022-07-30T01:49:06;100172.91;;;20.91;nan
46408;BME280;32110;45.724;21.276;2022-07-30T01:53:59;100113.25;;;20.91;nan
46408;BME280;32110;45.724;21.276;2022-07-30T01:56:26;100105.22;;;20.91;nan
46408;BME280;32110;45.724;21.276;2022-07-30T01:58:53;100108.69;;;20.91;nan
46408;BME280;32110;45.724;21.276;2022-07-30T02:01:20;100114.16;;;20.86;nan
46408;BME280;32110;45.724;21.276;2022-07-30T02:03:45;100112.75;;;20.89;nan
46408;BME280;32110;45.724;21.276;2022-07-30T02:06:22;100117.31;;;20.88;nan
46408;BME280;32110;45.724;21.276;2022-07-30T02:08:54;100106.13;;;20.86;nan
46408;BME280;32110;45.724;21.276;2022-07-30T02:11:20;100118.22;;;20.84;nan
46408;BME280;32110;45.724;21.276;2022-07-30T02:14:07;100149.94;;;20.76;nan
46408;BME280;32110;45.724;21.276;2022-07-30T02:16:37;100097.22;;;20.77;nan
46408;BME280;32110;45.724;21.276;2022-07-30T02:19:08;100093.94;;;20.80;nan
46408;BME280;32110;45.724;21.276;2022-07-30T02:21:39;100105.13;;;20.82;nan
46408;BME280;32110;45.724;21.276;2022-07-30T02:24:11;100108.91;;;20.81;nan
46408;BME280;32110;45.724;21.276;2022-07-30T02:26:37;100108.09;;;20.80;nan
46408;BME280;32110;45.724;21.276;2022-07-30T02:29:05;100105.41;;;20.80;nan
46408;BME280;32110;45.724;21.276;2022-07-30T02:31:32;100104.63;;;20.80;nan
46408;BME280;32110;45.724;21.276;2022-07-30T02:34:02;100105.03;;;20.73;nan
46408;BME280;32110;45.724;21.276;2022-07-30T02:36:30;100097.00;;;20.73;nan
46408;BME280;32110;45.724;21.276;2022-07-30T02:38:57;100101.56;;;20.73;nan
46408;BME280;32110;45.724;21.276;2022-07-30T02:41:26;100100.00;;;20.72;nan
46408;BME280;32110;45.724;21.276;2022-07-30T02:43:54;100102.34;;;20.73;nan
46408;BME280;32110;45.724;21.276;2022-07-30T02:46:22;100054.03;;;20.70;nan
46408;BME280;32110;45.724;21.276;2022-07-30T02:48:49;100087.69;;;20.71;nan
46408;BME280;32110;45.724;21.276;2022-07-30T02:51:17;100098.41;;;20.71;nan
46408;BME280;32110;45.724;21.276;2022-07-30T02:58:43;100101.69;;;20.68;nan
46408;BME280;32110;45.724;21.276;2022-07-30T03:01:12;100090.69;;;20.69;nan
46408;BME280;32110;45.724;21.276;2022-07-30T03:03:42;100088.91;;;20.65;nan
46408;BME280;32110;45.724;21.276;2022-07-30T03:08:34;100088.81;;;20.70;nan
46408;BME280;32110;45.724;21.276;2022-07-30T03:11:01;100101.69;;;20.68;nan
46408;BME280;32110;45.724;21.276;2022-07-30T03:13:27;100131.91;;;20.68;nan
46408;BME280;32110;45.724;21.276;2022-07-30T03:15:56;100099.28;;;20.66;nan
46408;BME280;32110;45.724;21.276;2022-07-30T03:18:22;100099.00;;;20.68;nan
46408;BME280;32110;45.724;21.276;2022-07-30T03:20:52;100104.06;;;20.69;nan
46408;BME280;32110;45.724;21.276;2022-07-30T03:23:19;100070.19;;;20.65;nan
46408;BME280;32110;45.724;21.276;2022-07-30T03:25:53;100094.44;;;20.68;nan
46408;BME280;32110;45.724;21.276;2022-07-30T03:28:22;100110.81;;;20.67;nan
46408;BME280;32110;45.724;21.276;2022-07-30T03:30:48;100103.84;;;20.66;nan
46408;BME280;32110;45.724;21.276;2022-07-30T03:33:14;100058.19;;;20.62;nan
46408;BME280;32110;45.724;21.276;2022-07-30T03:38:07;100095.03;;;20.65;nan
46408;BME280;32110;45.724;21.276;2022-07-30T03:43:00;100084.97;;;20.62;nan
46408;BME280;32110;45.724;21.276;2022-07-30T03:45:25;100095.66;;;20.62;nan
46408;BME280;32110;45.724;21.276;2022-07-30T03:47:52;100101.13;;;20.57;nan
46408;BME280;32110;45.724;21.276;2022-07-30T03:50:17;100101.78;;;20.63;nan
46408;BME280;32110;45.724;21.276;2022-07-30T03:52:43;100080.38;;;20.49;nan
46408;BME280;32110;45.724;21.276;2022-07-30T03:55:11;100068.69;;;20.58;nan
46408;BME280;32110;45.724;21.276;2022-07-30T03:57:37;100095.66;;;20.62;nan
46408;BME280;32110;45.724;21.276;2022-07-30T04:00:07;100078.59;;;20.58;nan
46408;BME280;32110;45.724;21.276;2022-07-30T04:02:42;100102.09;;;20.61;nan
46408;BME280;32110;45.724;21.276;2022-07-30T04:05:08;100079.09;;;20.60;nan
46408;BME280;32110;45.724;21.276;2022-07-30T04:07:33;100096.44;;;20.63;nan
46408;BME280;32110;45.724;21.276;2022-07-30T04:09:59;100101.50;;;20.64;nan
46408;BME280;32110;45.724;21.276;2022-07-30T04:12:24;100109.03;;;20.62;nan
46408;BME280;32110;45.724;21.276;2022-07-30T04:14:50;100083.84;;;20.63;nan
46408;BME280;32110;45.724;21.276;2022-07-30T04:17:21;100090.97;;;20.68;nan
46408;BME280;32110;45.724;21.276;2022-07-30T04:19:51;100088.50;;;20.71;nan
46408;BME280;32110;45.724;21.276;2022-07-30T04:22:22;100079.28;;;20.77;nan
46408;BME280;32110;45.724;21.276;2022-07-30T04:24:49;100093.94;;;20.80;nan
46408;BME280;32110;45.724;21.276;2022-07-30T04:27:16;100099.09;;;20.90;nan
46408;BME280;32110;45.724;21.276;2022-07-30T04:29:42;100076.44;;;20.96;nan
46408;BME280;32110;45.724;21.276;2022-07-30T04:34:34;100086.00;;;21.11;nan
46408;BME280;32110;45.724;21.276;2022-07-30T04:36:59;100084.50;;;21.19;nan
46408;BME280;32110;45.724;21.276;2022-07-30T04:39:25;100096.38;;;21.27;nan
46408;BME280;32110;45.724;21.276;2022-07-30T04:41:51;100114.69;;;21.33;nan
46408;BME280;32110;45.724;21.276;2022-07-30T04:44:17;100102.06;;;21.48;nan
46408;BME280;32110;45.724;21.276;2022-07-30T04:46:43;100092.81;;;21.54;nan
46408;BME280;32110;45.724;21.276;2022-07-30T04:49:10;100099.19;;;21.66;nan
46408;BME280;32110;45.724;21.276;2022-07-30T04:51:37;100080.00;;;21.73;nan
46408;BME280;32110;45.724;21.276;2022-07-30T04:54:06;100055.75;;;21.78;nan
46408;BME280;32110;45.724;21.276;2022-07-30T04:56:33;100147.41;;;21.89;nan
46408;BME280;32110;45.724;21.276;2022-07-30T04:59:00;100064.19;;;21.94;nan
46408;BME280;32110;45.724;21.276;2022-07-30T05:01:30;100073.06;;;22.03;nan
46408;BME280;32110;45.724;21.276;2022-07-30T05:03:58;100091.38;;;22.10;nan
46408;BME280;32110;45.724;21.276;2022-07-30T05:06:26;100039.66;;;22.18;nan
46408;BME280;32110;45.724;21.276;2022-07-30T05:08:53;100050.75;;;22.25;nan
46408;BME280;32110;45.724;21.276;2022-07-30T05:11:19;100036.88;;;22.32;nan
46408;BME280;32110;45.724;21.276;2022-07-30T05:13:47;100077.13;;;22.41;nan
46408;BME280;32110;45.724;21.276;2022-07-30T05:16:13;100068.34;;;22.49;nan
46408;BME280;32110;45.724;21.276;2022-07-30T05:18:39;100073.38;;;22.59;nan
46408;BME280;32110;45.724;21.276;2022-07-30T05:21:05;100070.41;;;22.69;nan
46408;BME280;32110;45.724;21.276;2022-07-30T05:23:31;100075.59;;;22.75;nan
46408;BME280;32110;45.724;21.276;2022-07-30T05:25:57;100075.47;;;22.80;nan
46408;BME280;32110;45.724;21.276;2022-07-30T05:30:51;100068.69;;;22.82;nan
46408;BME280;32110;45.724;21.276;2022-07-30T05:33:17;100090.50;;;22.89;nan
46408;BME280;32110;45.724;21.276;2022-07-30T05:35:42;100006.44;;;22.89;nan
46408;BME280;32110;45.724;21.276;2022-07-30T05:38:08;100088.63;;;22.99;nan
46408;BME280;32110;45.724;21.276;2022-07-30T05:40:33;100071.56;;;23.03;nan
46408;BME280;32110;45.724;21.276;2022-07-30T05:42:58;100066.50;;;23.19;nan
46408;BME280;32110;45.724;21.276;2022-07-30T05:45:24;100032.66;;;23.27;nan
46408;BME280;32110;45.724;21.276;2022-07-30T05:47:49;100018.44;;;23.35;nan
46408;BME280;32110;45.724;21.276;2022-07-30T05:50:15;100100.44;;;23.50;nan
46408;BME280;32110;45.724;21.276;2022-07-30T05:52:40;100094.25;;;23.67;nan
46408;BME280;32110;45.724;21.276;2022-07-30T05:55:06;100096.13;;;23.75;nan
46408;BME280;32110;45.724;21.276;2022-07-30T05:57:35;100099.13;;;23.82;nan
46408;BME280;32110;45.724;21.276;2022-07-30T06:00:02;100053.19;;;23.96;nan
46408;BME280;32110;45.724;21.276;2022-07-30T06:02:28;100168.84;;;24.05;nan
46408;BME280;32110;45.724;21.276;2022-07-30T06:04:53;100105.22;;;24.09;nan
46408;BME280;32110;45.724;21.276;2022-07-30T06:07:18;100113.41;;;24.21;nan
46408;BME280;32110;45.724;21.276;2022-07-30T06:09:44;100120.78;;;24.33;nan
46408;BME280;32110;45.724;21.276;2022-07-30T06:12:09;100099.06;;;24.38;nan
46408;BME280;32110;45.724;21.276;2022-07-30T06:14:35;100114.16;;;24.30;nan
46408;BME280;32110;45.724;21.276;2022-07-30T06:17:00;100128.31;;;24.48;nan
46408;BME280;32110;45.724;21.276;2022-07-30T06:19:26;100142.91;;;24.47;nan
46408;BME280;32110;45.724;21.276;2022-07-30T06:21:51;100125.72;;;24.60;nan
46408;BME280;32110;45.724;21.276;2022-07-30T06:24:16;100139.34;;;24.64;nan
46408;BME280;32110;45.724;21.276;2022-07-30T06:26:42;100162.13;;;24.67;nan
46408;BME280;32110;45.724;21.276;2022-07-30T06:29:07;100117.97;;;24.59;nan
46408;BME280;32110;45.724;21.276;2022-07-30T06:31:33;100136.06;;;24.79;nan
46408;BME280;32110;45.724;21.276;2022-07-30T06:33:58;100142.50;;;24.87;nan
46408;BME280;32110;45.724;21.276;2022-07-30T06:36:24;100138.50;;;24.93;nan
46408;BME280;32110;45.724;21.276;2022-07-30T06:38:49;100124.19;;;25.01;nan
46408;BME280;32110;45.724;21.276;2022-07-30T06:41:15;100103.75;;;25.00;nan
46408;BME280;32110;45.724;21.276;2022-07-30T06:43:40;100133.97;;;25.06;nan
46408;BME280;32110;45.724;21.276;2022-07-30T06:46:06;100132.88;;;25.07;nan
46408;BME280;32110;45.724;21.276;2022-07-30T06:48:31;100101.91;;;25.13;nan
46408;BME280;32110;45.724;21.276;2022-07-30T06:50:57;100091.47;;;25.12;nan
46408;BME280;32110;45.724;21.276;2022-07-30T06:53:22;100100.16;;;25.17;nan
46408;BME280;32110;45.724;21.276;2022-07-30T06:55:47;100114.88;;;25.20;nan
46408;BME280;32110;45.724;21.276;2022-07-30T06:58:15;100101.88;;;25.22;nan
46408;BME280;32110;45.724;21.276;2022-07-30T07:00:40;100114.47;;;25.30;nan
46408;BME280;32110;45.724;21.276;2022-07-30T07:03:09;100114.25;;;25.35;nan
46408;BME280;32110;45.724;21.276;2022-07-30T07:05:34;100087.59;;;25.21;nan
46408;BME280;32110;45.724;21.276;2022-07-30T07:07:59;100128.91;;;25.46;nan
46408;BME280;32110;45.724;21.276;2022-07-30T07:10:26;100123.31;;;25.52;nan
46408;BME280;32110;45.724;21.276;2022-07-30T07:12:51;100123.56;;;25.59;nan
46408;BME280;32110;45.724;21.276;2022-07-30T07:15:17;100134.13;;;25.64;nan
46408;BME280;32110;45.724;21.276;2022-07-30T07:17:42;100151.59;;;25.79;nan
46408;BME280;32110;45.724;21.276;2022-07-30T07:20:08;100085.84;;;25.83;nan
46408;BME280;32110;45.724;21.276;2022-07-30T07:22:34;100075.00;;;25.92;nan
46408;BME280;32110;45.724;21.276;2022-07-30T07:24:59;100097.81;;;26.07;nan
46408;BME280;32110;45.724;21.276;2022-07-30T07:27:25;100086.47;;;26.14;nan
46408;BME280;32110;45.724;21.276;2022-07-30T07:29:50;100087.03;;;26.31;nan
46408;BME280;32110;45.724;21.276;2022-07-30T07:32:16;100088.28;;;26.34;nan
46408;BME280;32110;45.724;21.276;2022-07-30T07:34:41;100080.59;;;26.48;nan
46408;BME280;32110;45.724;21.276;2022-07-30T07:37:07;100060.13;;;26.47;nan
46408;BME280;32110;45.724;21.276;2022-07-30T07:39:32;100089.16;;;26.63;nan
46408;BME280;32110;45.724;21.276;2022-07-30T07:41:57;100054.59;;;26.68;nan
46408;BME280;32110;45.724;21.276;2022-07-30T07:44:23;100111.53;;;26.76;nan
46408;BME280;32110;45.724;21.276;2022-07-30T07:46:48;100086.19;;;26.80;nan
46408;BME280;32110;45.724;21.276;2022-07-30T07:49:14;100127.09;;;27.07;nan
46408;BME280;32110;45.724;21.276;2022-07-30T07:51:39;100092.84;;;27.11;nan
46408;BME280;32110;45.724;21.276;2022-07-30T07:54:04;100112.31;;;27.16;nan
46408;BME280;32110;45.724;21.276;2022-07-30T07:56:30;100092.13;;;27.26;nan
46408;BME280;32110;45.724;21.276;2022-07-30T07:58:55;100099.06;;;27.40;nan
46408;BME280;32110;45.724;21.276;2022-07-30T08:01:21;100085.38;;;27.48;nan
46408;BME280;32110;45.724;21.276;2022-07-30T08:03:47;100082.50;;;27.57;nan
46408;BME280;32110;45.724;21.276;2022-07-30T08:06:12;100084.25;;;27.65;nan
46408;BME280;32110;45.724;21.276;2022-07-30T08:08:38;100065.94;;;27.74;nan
46408;BME280;32110;45.724;21.276;2022-07-30T08:11:05;100079.56;;;27.94;nan
46408;BME280;32110;45.724;21.276;2022-07-30T08:13:31;100077.84;;;28.02;nan
46408;BME280;32110;45.724;21.276;2022-07-30T08:15:58;100092.34;;;28.09;nan
46408;BME280;32110;45.724;21.276;2022-07-30T08:18:24;100086.81;;;28.21;nan
46408;BME280;32110;45.724;21.276;2022-07-30T08:20:49;100061.13;;;28.31;nan
46408;BME280;32110;45.724;21.276;2022-07-30T08:23:16;100020.56;;;28.35;nan
46408;BME280;32110;45.724;21.276;2022-07-30T08:25:43;100063.16;;;28.54;nan
46408;BME280;32110;45.724;21.276;2022-07-30T08:28:09;100073.81;;;28.62;nan
46408;BME280;32110;45.724;21.276;2022-07-30T08:30:34;100079.38;;;28.70;nan
46408;BME280;32110;45.724;21.276;2022-07-30T08:33:02;100061.63;;;28.72;nan
46408;BME280;32110;45.724;21.276;2022-07-30T08:35:27;100114.03;;;28.80;nan
46408;BME280;32110;45.724;21.276;2022-07-30T08:37:53;100025.91;;;28.86;nan
46408;BME280;32110;45.724;21.276;2022-07-30T08:40:19;100076.09;;;28.99;nan
46408;BME280;32110;45.724;21.276;2022-07-30T08:42:45;100073.22;;;29.08;nan
46408;BME280;32110;45.724;21.276;2022-07-30T08:45:12;100046.09;;;29.08;nan
46408;BME280;32110;45.724;21.276;2022-07-30T08:47:39;100063.19;;;29.32;nan
46408;BME280;32110;45.724;21.276;2022-07-30T08:50:06;100075.03;;;29.43;nan
46408;BME280;32110;45.724;21.276;2022-07-30T08:52:34;100042.66;;;29.54;nan
46408;BME280;32110;45.724;21.276;2022-07-30T08:55:00;100060.34;;;29.67;nan
46408;BME280;32110;45.724;21.276;2022-07-30T08:57:28;100066.41;;;29.83;nan
46408;BME280;32110;45.724;21.276;2022-07-30T08:59:56;100056.09;;;29.93;nan
46408;BME280;32110;45.724;21.276;2022-07-30T09:02:22;100050.78;;;30.00;nan
46408;BME280;32110;45.724;21.276;2022-07-30T09:04:47;100067.16;;;30.07;nan
46408;BME280;32110;45.724;21.276;2022-07-30T09:07:13;100049.84;;;30.15;nan
46408;BME280;32110;45.724;21.276;2022-07-30T09:09:38;100031.34;;;30.24;nan
46408;BME280;32110;45.724;21.276;2022-07-30T09:17:54;100031.84;;;30.60;nan
46408;BME280;32110;45.724;21.276;2022-07-30T09:20:25;100073.41;;;30.64;nan
46408;BME280;32110;45.724;21.276;2022-07-30T09:22:56;100021.59;;;30.80;nan
46408;BME280;32110;45.724;21.276;2022-07-30T09:25:35;100031.47;;;30.92;nan
46408;BME280;32110;45.724;21.276;2022-07-30T09:28:01;100067.31;;;31.01;nan
46408;BME280;32110;45.724;21.276;2022-07-30T09:30:42;100034.34;;;31.10;nan
46408;BME280;32110;45.724;21.276;2022-07-30T09:33:09;99993.91;;;31.05;nan
46408;BME280;32110;45.724;21.276;2022-07-30T09:35:34;100006.44;;;31.16;nan
46408;BME280;32110;45.724;21.276;2022-07-30T09:38:00;100019.03;;;31.32;nan
46408;BME280;32110;45.724;21.276;2022-07-30T09:40:25;99958.03;;;31.36;nan
46408;BME280;32110;45.724;21.276;2022-07-30T09:43:09;100038.97;;;31.43;nan
46408;BME280;32110;45.724;21.276;2022-07-30T09:45:36;100034.38;;;31.51;nan
46408;BME280;32110;45.724;21.276;2022-07-30T09:48:24;99985.13;;;31.63;nan
46408;BME280;32110;45.724;21.276;2022-07-30T09:50:51;99992.13;;;31.68;nan
46408;BME280;32110;45.724;21.276;2022-07-30T09:53:18;99973.09;;;31.71;nan
46408;BME280;32110;45.724;21.276;2022-07-30T09:55:46;99983.34;;;31.92;nan
46408;BME280;32110;45.724;21.276;2022-07-30T09:58:12;100014.13;;;31.96;nan
46408;BME280;32110;45.724;21.276;2022-07-30T10:00:39;99974.50;;;32.03;nan
46408;BME280;32110;45.724;21.276;2022-07-30T10:03:22;99990.06;;;32.06;nan
46408;BME280;32110;45.724;21.276;2022-07-30T10:05:56;100013.34;;;31.96;nan
46408;BME280;32110;45.724;21.276;2022-07-30T10:08:45;99986.56;;;32.02;nan
46408;BME280;32110;45.724;21.276;2022-07-30T10:11:14;99982.66;;;32.03;nan
46408;BME280;32110;45.724;21.276;2022-07-30T10:13:41;99974.91;;;32.05;nan
46408;BME280;32110;45.724;21.276;2022-07-30T10:16:07;99970.59;;;32.04;nan
46408;BME280;32110;45.724;21.276;2022-07-30T10:18:34;99937.16;;;32.07;nan
46408;BME280;32110;45.724;21.276;2022-07-30T10:21:00;99951.56;;;32.07;nan
46408;BME280;32110;45.724;21.276;2022-07-30T10:23:29;99937.19;;;32.17;nan
46408;BME280;32110;45.724;21.276;2022-07-30T10:25:55;100006.47;;;32.16;nan
46408;BME280;32110;45.724;21.276;2022-07-30T10:28:25;99953.16;;;32.19;nan
46408;BME280;32110;45.724;21.276;2022-07-30T10:30:52;100006.00;;;32.04;nan
46408;BME280;32110;45.724;21.276;2022-07-30T10:33:20;99961.59;;;31.96;nan
46408;BME280;32110;45.724;21.276;2022-07-30T10:35:46;99977.81;;;31.78;nan
46408;BME280;32110;45.724;21.276;2022-07-30T10:38:13;100001.66;;;31.03;nan
46408;BME280;32110;45.724;21.276;2022-07-30T10:40:51;100016.72;;;30.06;nan
46408;BME280;32110;45.724;21.276;2022-07-30T10:47:00;99991.16;;;28.33;nan
46408;BME280;32110;45.724;21.276;2022-07-30T10:49:30;99982.38;;;27.85;nan
46408;BME280;32110;45.724;21.276;2022-07-30T10:51:56;100010.00;;;27.47;nan
46408;BME280;32110;45.724;21.276;2022-07-30T10:54:36;100033.13;;;27.16;nan
46408;BME280;32110;45.724;21.276;2022-07-30T10:57:10;99971.97;;;26.95;nan
46408;BME280;32110;45.724;21.276;2022-07-30T11:02:28;100022.56;;;26.55;nan
46408;BME280;32110;45.724;21.276;2022-07-30T11:07:43;100022.38;;;26.10;nan
46408;BME280;32110;45.724;21.276;2022-07-30T11:10:36;100038.19;;;25.75;nan
46408;BME280;32110;45.724;21.276;2022-07-30T11:13:03;100060.00;;;25.24;nan
46408;BME280;32110;45.724;21.276;2022-07-30T11:15:58;100034.41;;;24.76;nan
46408;BME280;32110;45.724;21.276;2022-07-30T11:18:25;99999.50;;;24.38;nan
46408;BME280;32110;45.724;21.276;2022-07-30T11:21:15;100020.34;;;23.90;nan
46408;BME280;32110;45.724;21.276;2022-07-30T11:23:42;100000.22;;;23.49;nan
46408;BME280;32110;45.724;21.276;2022-07-30T11:26:10;99990.97;;;23.12;nan
46408;BME280;32110;45.724;21.276;2022-07-30T11:28:37;99977.72;;;22.98;nan
46408;BME280;32110;45.724;21.276;2022-07-30T11:31:23;99959.88;;;22.85;nan
46408;BME280;32110;45.724;21.276;2022-07-30T11:33:49;99992.56;;;22.69;nan
46408;BME280;32110;45.724;21.276;2022-07-30T11:36:14;99965.09;;;22.55;nan
46408;BME280;32110;45.724;21.276;2022-07-30T11:38:53;99942.03;;;22.45;nan
46408;BME280;32110;45.724;21.276;2022-07-30T11:41:20;99955.00;;;22.52;nan
46408;BME280;32110;45.724;21.276;2022-07-30T11:43:45;100012.94;;;22.53;nan
46408;BME280;32110;45.724;21.276;2022-07-30T11:46:16;100000.44;;;22.57;nan
46408;BME280;32110;45.724;21.276;2022-07-30T11:49:00;99989.09;;;22.60;nan
46408;BME280;32110;45.724;21.276;2022-07-30T11:51:42;99973.78;;;22.61;nan
46408;BME280;32110;45.724;21.276;2022-07-30T11:54:08;100031.91;;;22.65;nan
46408;BME280;32110;45.724;21.276;2022-07-30T11:59:14;99958.31;;;22.75;nan
46408;BME280;32110;45.724;21.276;2022-07-30T12:01:39;99982.16;;;22.85;nan
46408;BME280;32110;45.724;21.276;2022-07-30T12:04:06;100044.69;;;22.86;nan
46408;BME280;32110;45.724;21.276;2022-07-30T12:06:42;100037.88;;;22.88;nan
46408;BME280;32110;45.724;21.276;2022-07-30T12:09:08;100016.09;;;22.81;nan
46408;BME280;32110;45.724;21.276;2022-07-30T12:11:34;99971.09;;;22.87;nan
46408;BME280;32110;45.724;21.276;2022-07-30T12:14:02;99916.59;;;22.86;nan
46408;BME280;32110;45.724;21.276;2022-07-30T12:16:29;99998.72;;;22.79;nan
46408;BME280;32110;45.724;21.276;2022-07-30T12:19:00;100050.50;;;22.79;nan
46408;BME280;32110;45.724;21.276;2022-07-30T12:21:26;100000.75;;;22.82;nan
46408;BME280;32110;45.724;21.276;2022-07-30T12:23:59;100026.53;;;22.91;nan
46408;BME280;32110;45.724;21.276;2022-07-30T12:26:27;100073.91;;;22.87;nan
46408;BME280;32110;45.724;21.276;2022-07-30T12:28:58;100039.78;;;22.88;nan
46408;BME280;32110;45.724;21.276;2022-07-30T12:31:25;100104.38;;;22.83;nan
46408;BME280;32110;45.724;21.276;2022-07-30T12:33:51;100036.63;;;22.86;nan
46408;BME280;32110;45.724;21.276;2022-07-30T12:36:33;100025.25;;;22.89;nan
46408;BME280;32110;45.724;21.276;2022-07-30T12:39:00;100046.41;;;22.90;nan
46408;BME280;32110;45.724;21.276;2022-07-30T12:44:07;100030.59;;;22.89;nan
46408;BME280;32110;45.724;21.276;2022-07-30T12:46:38;100038.88;;;23.01;nan
46408;BME280;32110;45.724;21.276;2022-07-30T12:49:06;100027.97;;;23.06;nan
46408;BME280;32110;45.724;21.276;2022-07-30T12:51:39;100024.94;;;23.08;nan
46408;BME280;32110;45.724;21.276;2022-07-30T12:54:18;100054.03;;;23.23;nan
46408;BME280;32110;45.724;21.276;2022-07-30T12:57:00;100056.06;;;23.26;nan
46408;BME280;32110;45.724;21.276;2022-07-30T12:59:27;100066.50;;;23.28;nan
46408;BME280;32110;45.724;21.276;2022-07-30T13:01:53;100040.06;;;23.39;nan
46408;BME280;32110;45.724;21.276;2022-07-30T13:04:21;100033.56;;;23.48;nan
46408;BME280;32110;45.724;21.276;2022-07-30T13:07:25;100011.75;;;23.50;nan
46408;BME280;32110;45.724;21.276;2022-07-30T13:10:07;100057.56;;;23.71;nan
46408;BME280;32110;45.724;21.276;2022-07-30T13:12:32;100069.09;;;23.80;nan
46408;BME280;32110;45.724;21.276;2022-07-30T13:14:58;100053.69;;;23.89;nan
46408;BME280;32110;45.724;21.276;2022-07-30T13:17:23;100041.66;;;23.95;nan
46408;BME280;32110;45.724;21.276;2022-07-30T13:19:48;100035.44;;;24.04;nan
46408;BME280;32110;45.724;21.276;2022-07-30T13:22:14;100018.34;;;24.08;nan
46408;BME280;32110;45.724;21.276;2022-07-30T13:24:39;99998.06;;;24.11;nan
46408;BME280;32110;45.724;21.276;2022-07-30T13:27:05;100029.06;;;24.17;nan
46408;BME280;32110;45.724;21.276;2022-07-30T13:29:30;100059.44;;;24.17;nan
46408;BME280;32110;45.724;21.276;2022-07-30T13:31:55;100019.84;;;24.18;nan
46408;BME280;32110;45.724;21.276;2022-07-30T13:34:21;100072.38;;;24.24;nan
46408;BME280;32110;45.724;21.276;2022-07-30T13:36:46;100063.66;;;24.27;nan
46408;BME280;32110;45.724;21.276;2022-07-30T13:39:12;100060.66;;;24.29;nan
46408;BME280;32110;45.724;21.276;2022-07-30T13:41:37;100077.84;;;24.36;nan
46408;BME280;32110;45.724;21.276;2022-07-30T13:44:05;100026.06;;;24.39;nan
46408;BME280;32110;45.724;21.276;2022-07-30T13:46:31;100059.91;;;24.49;nan
46408;BME280;32110;45.724;21.276;2022-07-30T13:48:56;100050.06;;;24.53;nan
46408;BME280;32110;45.724;21.276;2022-07-30T13:51:22;100096.00;;;24.57;nan
46408;BME280;32110;45.724;21.276;2022-07-30T13:53:47;100069.00;;;24.66;nan
46408;BME280;32110;45.724;21.276;2022-07-30T13:58:38;100074.59;;;24.81;nan
46408;BME280;32110;45.724;21.276;2022-07-30T14:01:03;100072.56;;;24.78;nan
46408;BME280;32110;45.724;21.276;2022-07-30T14:03:31;100062.88;;;24.77;nan